createdAt,value
2023-04-02T00:03:03.912Z,9.48
2023-04-02T00:05:51.465Z,13.15
2023-04-02T00:08:40.975Z,10.50
2023-04-02T00:11:09.213Z,8.48
2023-04-02T00:13:46.836Z,9.80
2023-04-02T00:16:20.851Z,8.80
2023-04-02T00:18:53.202Z,11.32
2023-04-02T00:21:29.588Z,9.95
2023-04-02T00:23:59.352Z,8.02
2023-04-02T00:26:32.279Z,9.32
2023-04-02T00:29:01.172Z,6.47
2023-04-02T00:31:29.324Z,7.15
2023-04-02T00:33:57.194Z,7.20
2023-04-02T00:36:30.132Z,8.23
2023-04-02T00:38:59.862Z,9.15
2023-04-02T00:41:29.995Z,13.05
2023-04-02T00:43:59.651Z,8.07
2023-04-02T00:46:46.691Z,8.30
2023-04-02T00:49:40.435Z,5.95
2023-04-02T00:52:22.262Z,11.95
2023-04-02T00:55:10.419Z,6.97
2023-04-02T00:57:42.110Z,6.85
2023-04-02T01:00:31.202Z,9.15
2023-04-02T01:03:17.164Z,8.70
2023-04-02T01:05:48.344Z,9.52
2023-04-02T01:08:29.251Z,8.40
2023-04-02T01:11:39.356Z,10.27
2023-04-02T01:14:28.838Z,10.52
2023-04-02T01:17:08.690Z,9.18
2023-04-02T01:20:00.966Z,15.32
2023-04-02T01:22:42.189Z,11.88
2023-04-02T01:25:15.476Z,8.77
2023-04-02T01:27:50.510Z,9.00
2023-04-02T01:30:18.282Z,9.32
2023-04-02T01:32:45.960Z,12.57
2023-04-02T01:35:13.001Z,11.52
2023-04-02T01:37:50.104Z,7.85
2023-04-02T01:40:26.525Z,19.13
2023-04-02T01:43:02.080Z,10.02
2023-04-02T01:45:30.678Z,10.48
2023-04-02T01:47:59.158Z,10.05
2023-04-02T01:50:31.921Z,14.45
2023-04-02T01:53:06.067Z,15.93
2023-04-02T01:55:48.967Z,23.70
2023-04-02T01:58:26.257Z,20.67
2023-04-02T02:01:06.233Z,19.25
2023-04-02T02:03:35.631Z,22.92
2023-04-02T02:06:06.518Z,17.13
2023-04-02T02:08:37.006Z,19.50
2023-04-02T02:11:05.714Z,22.02
2023-04-02T02:13:33.573Z,20.45
2023-04-02T02:16:01.605Z,21.27
2023-04-02T02:18:29.643Z,20.73
2023-04-02T02:21:00.025Z,22.60
2023-04-02T02:23:30.055Z,26.05
2023-04-02T02:25:58.351Z,29.50
2023-04-02T02:28:31.937Z,28.85
2023-04-02T02:31:10.125Z,28.10
2023-04-02T02:33:51.115Z,24.67
2023-04-02T02:36:33.514Z,20.08
2023-04-02T02:39:13.255Z,17.38
2023-04-02T02:41:52.400Z,15.70
2023-04-02T02:44:29.721Z,16.83
2023-04-02T02:47:29.477Z,18.50
2023-04-02T02:50:02.634Z,10.52
2023-04-02T02:52:36.805Z,8.75
2023-04-02T02:55:10.284Z,14.02
2023-04-02T02:57:57.849Z,9.93
2023-04-02T03:00:28.371Z,12.10
2023-04-02T03:03:07.918Z,15.95
2023-04-02T03:11:08.955Z,7.60
2023-04-02T03:13:38.911Z,10.07
2023-04-02T03:16:23.099Z,10.20
2023-04-02T03:18:54.834Z,11.57
2023-04-02T03:21:22.474Z,9.20
2023-04-02T03:24:05.441Z,8.60
2023-04-02T03:26:39.788Z,8.55
2023-04-02T03:29:24.823Z,11.82
2023-04-02T03:32:08.087Z,16.42
2023-04-02T03:34:41.487Z,12.07
2023-04-02T03:37:40.834Z,9.57
2023-04-02T03:40:18.853Z,11.40
2023-04-02T03:42:54.465Z,11.38
2023-04-02T03:45:31.747Z,10.73
2023-04-02T03:48:15.848Z,10.60
2023-04-02T03:51:27.492Z,9.77
2023-04-02T03:53:56.345Z,11.07
2023-04-02T03:56:39.954Z,5.63
2023-04-02T03:59:27.131Z,7.63
2023-04-02T04:02:00.897Z,5.82
2023-04-02T04:04:30.431Z,6.13
2023-04-02T04:07:00.601Z,4.30
2023-04-02T04:09:33.320Z,7.15
2023-04-02T04:12:15.545Z,8.15
2023-04-02T04:14:48.904Z,7.70
2023-04-02T04:17:29.873Z,6.70
2023-04-02T04:20:12.958Z,9.05
2023-04-02T04:22:40.920Z,8.30
2023-04-02T04:25:30.686Z,5.30
2023-04-02T04:28:08.405Z,5.63
2023-04-02T04:31:17.860Z,7.10
2023-04-02T04:33:50.729Z,5.55
2023-04-02T04:36:27.873Z,5.15
2023-04-02T04:39:06.151Z,6.93
2023-04-02T04:41:37.722Z,10.60
2023-04-02T04:44:22.634Z,7.35
2023-04-02T04:47:15.564Z,9.63
2023-04-02T04:50:14.358Z,7.13
2023-04-02T04:52:43.841Z,10.02
2023-04-02T04:55:36.695Z,8.38
2023-04-02T04:58:29.108Z,8.88
2023-04-02T05:01:10.531Z,9.63
2023-04-02T05:03:47.262Z,8.25
2023-04-02T05:06:19.713Z,7.65
2023-04-02T05:08:51.387Z,7.70
2023-04-02T05:11:39.914Z,9.95
2023-04-02T05:14:17.093Z,9.27
2023-04-02T05:16:52.756Z,6.38
2023-04-02T05:19:32.820Z,9.57
2023-04-02T05:22:12.272Z,9.32
2023-04-02T05:24:45.008Z,7.75
2023-04-02T05:27:48.294Z,8.75
2023-04-02T05:30:24.944Z,12.18
2023-04-02T05:33:07.838Z,15.10
2023-04-02T05:35:42.488Z,16.88
2023-04-02T05:38:23.732Z,26.58
2023-04-02T05:41:01.966Z,24.83
2023-04-02T05:43:33.584Z,24.05
2023-04-02T05:46:08.257Z,22.23
2023-04-02T05:48:43.287Z,22.42
2023-04-02T05:51:20.065Z,23.77
2023-04-02T05:53:53.695Z,29.92
2023-04-02T05:56:29.400Z,34.88
2023-04-02T05:59:11.946Z,35.42
2023-04-02T06:02:00.287Z,45.42
2023-04-02T06:04:47.410Z,41.37
2023-04-02T06:07:16.676Z,39.60
2023-04-02T06:09:56.650Z,44.40
2023-04-02T06:12:33.058Z,49.03
2023-04-02T06:15:00.985Z,45.63
2023-04-02T06:17:43.151Z,45.83
2023-04-02T06:20:16.375Z,46.65
2023-04-02T06:22:51.363Z,49.17
2023-04-02T06:25:29.976Z,49.35
2023-04-02T06:28:01.560Z,44.03
2023-04-02T06:30:33.419Z,50.35
2023-04-02T06:33:01.606Z,48.53
2023-04-02T06:35:30.529Z,41.83
2023-04-02T06:38:06.160Z,48.13
2023-04-02T06:40:51.008Z,50.17
2023-04-02T06:43:39.346Z,54.22
2023-04-02T06:46:46.939Z,47.70
2023-04-02T06:49:42.542Z,46.22
2023-04-02T06:52:23.314Z,47.90
2023-04-02T06:54:50.850Z,46.75
2023-04-02T06:57:17.998Z,50.47
2023-04-02T06:59:47.341Z,48.90
2023-04-02T07:02:37.536Z,46.05
2023-04-02T07:05:09.513Z,47.97
2023-04-02T07:07:40.258Z,45.45
2023-04-02T07:10:10.306Z,52.58
2023-04-02T07:12:37.250Z,46.15
2023-04-02T07:15:04.530Z,48.08
2023-04-02T07:17:32.119Z,50.42
2023-04-02T07:19:59.693Z,52.72
2023-04-02T07:22:26.928Z,48.75
2023-04-02T07:24:59.748Z,46.00
2023-04-02T07:27:26.645Z,47.72
2023-04-02T07:29:53.639Z,47.58
2023-04-02T07:32:20.810Z,49.20
2023-04-02T07:34:48.937Z,48.40
2023-04-02T07:37:16.485Z,45.75
2023-04-02T07:39:43.496Z,50.88
2023-04-02T07:42:10.692Z,42.20
2023-04-02T07:44:37.768Z,45.55
2023-04-02T07:47:04.814Z,51.60
2023-04-02T07:49:31.735Z,39.88
2023-04-02T07:51:58.966Z,39.70
2023-04-02T07:54:27.221Z,37.67
2023-04-02T07:56:54.213Z,37.50
2023-04-02T07:59:21.230Z,44.65
2023-04-02T08:01:48.343Z,42.33
2023-04-02T08:04:20.801Z,41.38
2023-04-02T08:06:49.002Z,44.85
2023-04-02T08:09:18.064Z,31.67
2023-04-02T08:11:46.758Z,32.13
2023-04-02T08:14:14.660Z,28.45
2023-04-02T08:16:49.755Z,29.08
2023-04-02T08:19:17.846Z,23.58
2023-04-02T08:21:45.544Z,19.00
2023-04-02T08:24:12.441Z,23.52
2023-04-02T08:26:39.422Z,19.58
2023-04-02T08:29:06.453Z,21.75
2023-04-02T08:31:33.333Z,20.02
2023-04-02T08:34:01.640Z,18.30
2023-04-02T08:36:36.667Z,21.02
2023-04-02T08:39:05.750Z,19.17
2023-04-02T08:41:42.112Z,21.17
2023-04-02T08:44:20.970Z,21.52
2023-04-02T08:47:03.750Z,23.08
2023-04-02T08:49:52.476Z,23.08
2023-04-02T08:52:29.299Z,18.60
2023-04-02T08:54:58.078Z,19.33
2023-04-02T08:57:34.287Z,25.55
2023-04-02T09:00:32.592Z,24.30
2023-04-02T09:03:21.503Z,15.45
2023-04-02T09:05:50.727Z,14.93
2023-04-02T09:08:24.893Z,16.20
2023-04-02T09:11:19.067Z,13.27
2023-04-02T09:13:48.795Z,15.45
2023-04-02T09:16:21.411Z,11.65
2023-04-02T09:18:52.188Z,17.02
2023-04-02T09:21:28.168Z,18.42
2023-04-02T09:23:55.898Z,19.45
2023-04-02T09:26:28.729Z,10.77
2023-04-02T09:29:24.688Z,9.98
2023-04-02T09:32:05.076Z,7.43
2023-04-02T09:34:35.030Z,9.57
2023-04-02T09:37:17.141Z,13.27
2023-04-02T09:39:44.339Z,12.98
2023-04-02T11:49:39.967Z,8.70
2023-04-02T11:52:22.598Z,6.90
2023-04-02T11:55:20.426Z,6.30
2023-04-02T11:58:04.584Z,7.05
2023-04-02T12:00:34.880Z,7.57
2023-04-02T12:03:19.517Z,3.13
2023-04-02T12:06:03.629Z,4.55
2023-04-02T12:08:57.982Z,3.83
2023-04-02T12:11:40.143Z,4.43
2023-04-02T12:14:47.620Z,4.13
2023-04-02T12:17:31.829Z,3.25
2023-04-02T12:20:27.634Z,3.92
2023-04-02T12:22:56.223Z,2.60
2023-04-02T12:25:40.164Z,3.15
2023-04-02T12:28:09.886Z,4.68
2023-04-02T12:30:38.820Z,3.22
2023-04-02T12:33:15.768Z,3.20
2023-04-02T12:35:44.562Z,2.85
2023-04-02T12:38:23.727Z,2.55
2023-04-02T12:40:58.608Z,4.32
2023-04-02T12:43:27.885Z,2.67
2023-04-02T12:45:57.727Z,3.33
2023-04-02T12:48:26.213Z,2.72
2023-04-02T12:50:58.291Z,2.53
2023-04-02T12:53:35.294Z,1.88
2023-04-02T12:56:04.401Z,2.22
2023-04-02T12:58:42.895Z,2.38
2023-04-02T17:46:44.037Z,5.57
2023-04-02T17:57:37.252Z,8.88
2023-04-02T18:00:16.712Z,6.30
2023-04-02T18:03:05.484Z,8.15
2023-04-02T18:05:56.267Z,3.42
2023-04-02T18:08:53.624Z,3.70
2023-04-02T18:11:30.971Z,10.10
2023-04-02T18:14:28.746Z,4.78
2023-04-02T18:17:04.925Z,7.53
2023-04-02T18:19:54.294Z,6.50
2023-04-02T18:22:37.433Z,8.02
2023-04-02T18:25:14.435Z,9.57
2023-04-02T18:27:57.842Z,5.32
2023-04-02T18:30:47.941Z,7.97
2023-04-02T18:34:02.298Z,5.15
2023-04-02T18:36:35.724Z,6.75
2023-04-02T18:39:14.461Z,10.10
2023-04-02T18:42:09.649Z,5.40
2023-04-02T18:44:59.051Z,5.57
2023-04-02T18:47:44.080Z,5.75
2023-04-02T18:50:19.246Z,5.72
2023-04-02T18:52:47.364Z,4.88
2023-04-02T18:55:28.871Z,6.50
2023-04-02T18:58:02.261Z,6.72
2023-04-02T19:00:33.814Z,6.35
2023-04-02T19:03:29.341Z,11.07
2023-04-02T19:06:26.358Z,5.18
2023-04-02T19:09:01.235Z,4.13
2023-04-02T19:11:34.287Z,5.38
2023-04-02T19:14:04.251Z,7.10
2023-04-02T19:17:02.888Z,5.28
2023-04-02T19:19:44.798Z,4.35
2023-04-02T19:23:05.592Z,3.45
2023-04-02T19:26:01.707Z,4.40
2023-04-02T19:28:37.767Z,4.07
2023-04-02T19:31:32.479Z,3.63
2023-04-02T19:34:13.399Z,5.13
2023-04-02T19:37:01.293Z,6.05
2023-04-02T19:39:42.500Z,5.40
2023-04-02T19:42:21.088Z,6.53
2023-04-02T19:44:51.779Z,2.97
2023-04-02T19:47:20.162Z,4.10
2023-04-02T19:49:47.349Z,5.80
2023-04-02T19:52:19.664Z,4.47
2023-04-02T19:54:47.158Z,5.38
2023-04-02T19:57:15.611Z,4.47
2023-04-02T19:59:42.997Z,6.07
2023-04-02T20:02:11.228Z,4.93
2023-04-02T20:04:38.418Z,6.00
2023-04-02T20:07:05.701Z,4.40
2023-04-02T20:09:32.681Z,4.15
2023-04-02T20:11:59.791Z,3.10
2023-04-02T20:14:26.704Z,3.28
2023-04-02T20:16:53.676Z,8.15
2023-04-02T20:19:20.726Z,4.57
2023-04-02T20:21:47.713Z,3.95
2023-04-02T20:24:14.730Z,4.82
2023-04-02T20:26:41.713Z,4.30
2023-04-02T20:29:08.767Z,6.47
2023-04-02T20:31:38.739Z,8.77
2023-04-02T20:34:08.515Z,5.38
2023-04-02T20:36:36.020Z,3.67
2023-04-02T20:39:03.602Z,6.78
2023-04-02T20:41:31.267Z,5.38
2023-04-02T20:43:58.600Z,3.95
2023-04-02T20:46:25.901Z,5.50
2023-04-02T20:48:52.835Z,6.35
2023-04-02T20:51:20.102Z,7.85
2023-04-02T20:53:47.767Z,4.18
2023-04-02T20:56:16.515Z,3.42
2023-04-02T20:58:43.948Z,3.35
2023-04-02T21:01:17.192Z,4.32
2023-04-02T21:03:44.318Z,3.33
2023-04-02T21:06:19.519Z,5.63
2023-04-02T21:08:47.142Z,3.22
2023-04-02T21:11:14.801Z,5.65
2023-04-02T21:13:44.187Z,3.65
2023-04-02T21:16:23.494Z,3.40
2023-04-02T21:18:52.814Z,2.50
2023-04-02T21:21:21.048Z,2.85
2023-04-02T21:23:48.754Z,2.95
2023-04-02T21:26:17.985Z,4.50
2023-04-02T21:28:45.930Z,6.25
2023-04-02T21:31:40.787Z,4.45
2023-04-02T21:34:09.794Z,4.30
2023-04-02T21:36:40.702Z,3.67
2023-04-02T21:39:27.287Z,2.92
2023-04-02T21:41:54.781Z,3.25
2023-04-02T21:44:24.184Z,2.42
2023-04-02T21:46:53.739Z,3.60
2023-04-02T21:49:26.334Z,3.03
2023-04-02T21:51:53.645Z,3.92
2023-04-02T21:54:21.227Z,8.23
2023-04-02T21:56:48.652Z,2.42
2023-04-02T21:59:17.335Z,4.05
2023-04-02T22:01:54.458Z,2.88
2023-04-02T22:04:23.969Z,3.20
2023-04-02T22:06:52.645Z,3.17
2023-04-02T22:09:22.509Z,3.72
2023-04-02T22:11:56.123Z,3.00
2023-04-02T22:14:23.393Z,4.55
2023-04-02T22:16:50.973Z,2.58
2023-04-02T22:19:20.376Z,1.67
2023-04-02T22:21:47.422Z,2.35
2023-04-02T22:24:18.719Z,4.38
2023-04-02T22:26:46.658Z,2.47
2023-04-02T22:29:14.301Z,7.32
2023-04-02T22:31:41.729Z,4.10
2023-04-02T22:34:08.745Z,4.40
2023-04-02T22:36:36.632Z,6.95
2023-04-02T22:39:10.331Z,3.10
2023-04-02T22:41:38.351Z,3.25
2023-04-02T22:44:05.298Z,1.75
2023-04-02T22:46:32.653Z,3.17
2023-04-02T22:48:59.731Z,1.85
2023-04-02T22:51:27.916Z,1.77
2023-04-02T22:53:56.713Z,2.60
2023-04-02T22:56:29.842Z,5.45
2023-04-02T22:58:56.734Z,4.20
2023-04-02T23:01:27.133Z,3.25
2023-04-02T23:03:55.347Z,1.88
2023-04-02T23:06:23.028Z,2.55
2023-04-02T23:08:50.493Z,1.80
2023-04-02T23:11:22.024Z,2.40
2023-04-02T23:13:52.601Z,1.70
2023-04-02T23:16:21.185Z,1.58
2023-04-02T23:18:49.026Z,1.88
2023-04-02T23:21:16.991Z,2.35
2023-04-02T23:23:44.464Z,3.30
2023-04-02T23:26:16.214Z,1.10
2023-04-02T23:28:43.704Z,2.03
2023-04-02T23:31:16.290Z,2.60
2023-04-02T23:33:44.057Z,1.70
2023-04-02T23:36:17.631Z,2.60
2023-04-02T23:38:44.701Z,2.60
2023-04-02T23:41:16.790Z,3.22
2023-04-02T23:43:44.034Z,1.50
2023-04-02T23:46:11.616Z,1.30
2023-04-02T23:48:38.871Z,3.17
2023-04-02T23:51:06.829Z,2.85
2023-04-02T23:53:34.670Z,1.30
2023-04-02T23:56:01.633Z,2.97
2023-04-02T23:58:28.693Z,1.38
